Rowena, Texas
Current Conditions -  °F | °C
As of 10:51 AM on Thursday 30 Oct 2014 (Local Time) from KSJT Reporting Station
Clear Clear  
Wind Chill: 23°   Ceiling: Unl
Heat Index: 23°   Visibility: 10mi
Dew Point: 16°   Wind: 14mph
Humidity: 64%   Direction: 190°S
Pressure: 30.14"   Gusts: NA
Location:  31.65°N, 100.05°W
Report Text: KSJT 301551Z 19012KT 10SM CLR 23/16 A3014 RMK AO2 SLP190 T02330161
Loading
Personal Weather Stations






























Interactive Weather Map
Tropical Storm Tracking
New forecast layout! Learn more

10-Day Weather Forecast

Advertisements
Track Severe Weather on mobile